Time;durP1;ratioP1;P1;durP2;ratioP2;P2;SDS_P1;SDS_P2;PMS_P1;PMS_P2;Temp;Humidity;BMP_temperature;BMP_pressure;BME280_temperature;BME280_humidity;BME280_pressure;Samples;Min_cycle;Max_cycle;Signal;HPM_P1;HPM_P2
2022/05/09 00:00:26;;;;;;;14.75;6.50;;;17.80;78.60;;;;;;5084337;28;20024;-77
2022/05/09 00:02:56;;;;;;;15.00;7.05;;;17.70;78.40;;;;;;5083253;28;20032;-77
2022/05/09 00:05:41;;;;;;;11.98;6.90;;;17.70;78.30;;;;;;5085528;28;20028;-77
2022/05/09 00:08:07;;;;;;;12.20;6.33;;;17.70;78.10;;;;;;5081430;28;20024;-78
2022/05/09 00:14:17;;;;;;;11.55;6.20;;;17.70;78.20;;;;;;5056585;28;20542;-75
2022/05/09 00:17:04;;;;;;;11.80;6.75;;;17.70;78.00;;;;;;5098803;27;20763;-78
2022/05/09 00:22:44;;;;;;;10.30;6.68;;;17.60;77.70;;;;;;5075606;28;20047;-75
2022/05/09 00:25:41;;;;;;;9.35;5.45;;;17.60;77.50;;;;;;5079364;28;20385;-78
2022/05/09 00:28:07;;;;;;;11.75;6.05;;;17.60;77.40;;;;;;5076353;28;20051;-76
2022/05/09 00:30:34;;;;;;;11.30;5.72;;;17.60;77.30;;;;;;5078213;28;20150;-76
2022/05/09 00:33:01;;;;;;;11.70;5.95;;;17.50;77.10;;;;;;5083447;28;20012;-76
2022/05/09 00:35:27;;;;;;;7.90;6.05;;;17.50;77.10;;;;;;5087818;28;20072;-73
2022/05/09 00:37:54;;;;;;;12.93;6.20;;;17.50;77.10;;;;;;5080659;28;20020;-76
2022/05/09 00:40:20;;;;;;;11.85;6.45;;;17.50;77.10;;;;;;5081510;28;20031;-74
2022/05/09 00:42:53;;;;;;;10.55;6.50;;;17.50;77.10;;;;;;5082802;28;20028;-73
2022/05/09 00:45:22;;;;;;;10.15;6.72;;;17.50;77.10;;;;;;5081433;28;20467;-73
2022/05/09 00:47:49;;;;;;;9.90;5.78;;;17.40;77.00;;;;;;5084281;28;20533;-73
2022/05/09 00:50:22;;;;;;;10.13;6.35;;;17.40;76.90;;;;;;5083238;28;20185;-73
2022/05/09 00:52:59;;;;;;;10.80;5.97;;;17.40;76.70;;;;;;5079764;28;20036;-73
2022/05/09 00:55:37;;;;;;;8.93;6.22;;;17.40;76.70;;;;;;5080668;28;20012;-73
2022/05/09 00:58:26;;;;;;;10.95;6.65;;;17.30;76.60;;;;;;5085386;28;20036;-73
2022/05/09 01:00:55;;;;;;;14.25;6.18;;;17.30;76.50;;;;;;5080154;28;20136;-74
2022/05/09 01:03:30;;;;;;;7.35;5.55;;;17.30;76.40;;;;;;5084789;28;20017;-75
2022/05/09 01:05:56;;;;;;;;;;;17.30;76.20;;;;;;5083336;28;20020;-73
2022/05/09 01:08:24;;;;;;;12.93;6.35;;;17.30;76.20;;;;;;5084655;28;19908;-73
2022/05/09 01:10:52;;;;;;;13.40;6.63;;;17.20;76.00;;;;;;5089435;28;20020;-73
2022/05/09 01:13:22;;;;;;;10.98;5.70;;;17.20;75.80;;;;;;5087289;28;20707;-74
2022/05/09 01:15:53;;;;;;;14.65;7.22;;;17.20;75.60;;;;;;5080239;28;20016;-77
2022/05/09 01:18:29;;;;;;;11.02;6.03;;;17.20;75.50;;;;;;5087053;28;20035;-77
2022/05/09 01:21:26;;;;;;;12.25;6.53;;;17.20;75.40;;;;;;5083712;28;20051;-79
2022/05/09 01:23:52;;;;;;;12.13;7.22;;;17.10;75.30;;;;;;5083965;28;20032;-76
2022/05/09 01:29:27;;;;;;;12.38;7.90;;;17.10;75.10;;;;;;5044123;28;20409;-78
2022/05/09 01:32:07;;;;;;;17.45;8.85;;;17.10;75.00;;;;;;5083893;28;20035;-78
2022/05/09 01:34:35;;;;;;;13.27;8.85;;;17.10;75.10;;;;;;5086717;28;20028;-72
2022/05/09 01:37:07;;;;;;;11.70;8.60;;;17.10;74.90;;;;;;5084947;28;20139;-78
2022/05/09 01:39:33;;;;;;;14.45;9.15;;;17.10;74.90;;;;;;5086292;28;20031;-74
2022/05/09 01:42:40;;;;;;;17.05;10.52;;;17.00;74.80;;;;;;5085173;28;20122;-78
2022/05/09 01:45:15;;;;;;;19.10;10.77;;;17.00;74.80;;;;;;5047686;28;20037;-78
2022/05/09 01:50:26;;;;;;;14.73;10.50;;;17.00;74.80;;;;;;5047175;28;20047;-77
2022/05/09 01:52:54;;;;;;;12.80;9.40;;;16.90;74.50;;;;;;5050182;28;20277;-78
2022/05/09 01:55:47;;;;;;;;;;;;;;;;;;;;;
2022/05/09 01:58:22;;;;;;;12.68;10.63;;;16.90;74.50;;;;;;5046145;28;20029;-80
2022/05/09 02:01:18;;;;;;;17.83;9.48;;;16.90;74.40;;;;;;5046943;28;20454;-79
2022/05/09 02:03:49;;;;;;;11.15;7.85;;;16.90;74.30;;;;;;4990195;28;20117;-78
2022/05/09 02:06:17;;;;;;;10.23;7.93;;;16.90;74.30;;;;;;5042255;28;20160;-78
2022/05/09 02:08:45;;;;;;;9.38;7.30;;;16.90;74.20;;;;;;5048778;28;20527;-75
2022/05/09 02:11:12;;;;;;;9.32;6.97;;;16.90;74.10;;;;;;5044575;28;20025;-76
2022/05/09 02:13:38;;;;;;;11.60;7.88;;;16.90;74.10;;;;;;5047376;28;20037;-77
2022/05/09 02:16:05;;;;;;;10.70;6.53;;;16.80;73.80;;;;;;5063419;28;20652;-79
2022/05/09 02:18:33;;;;;;;10.07;6.22;;;16.80;73.70;;;;;;5083907;28;20048;-77
2022/05/09 02:21:00;;;;;;;9.68;6.32;;;16.80;73.70;;;;;;5084546;28;20065;-78
2022/05/09 02:23:27;;;;;;;7.32;6.18;;;16.80;73.60;;;;;;5084226;28;20027;-74
2022/05/09 02:25:53;;;;;;;11.77;6.28;;;16.80;73.50;;;;;;5085047;28;20039;-79
2022/05/09 02:28:21;;;;;;;14.52;6.15;;;16.80;73.30;;;;;;5081887;28;20117;-78
2022/05/09 02:30:48;;;;;;;11.05;5.72;;;16.70;73.20;;;;;;5085169;28;20107;-79
2022/05/09 02:33:15;;;;;;;8.50;6.05;;;16.70;73.10;;;;;;5082581;28;20051;-77
2022/05/09 02:35:42;;;;;;;8.68;5.82;;;16.70;73.10;;;;;;5089102;28;20085;-76
2022/05/09 02:38:09;;;;;;;9.73;5.35;;;16.60;72.90;;;;;;5082377;28;20020;-77
2022/05/09 02:40:36;;;;;;;11.32;5.35;;;16.60;72.70;;;;;;5086389;28;20028;-74
2022/05/09 02:43:04;;;;;;;7.53;5.57;;;16.60;72.60;;;;;;5083407;28;20012;-75
2022/05/09 02:45:31;;;;;;;7.25;4.65;;;16.60;72.70;;;;;;5083747;28;20012;-75
2022/05/09 02:47:57;;;;;;;9.82;4.63;;;16.50;72.50;;;;;;5084337;28;20025;-76
2022/05/09 02:50:26;;;;;;;6.28;4.20;;;16.50;72.30;;;;;;5083106;28;20043;-76
2022/05/09 02:52:54;;;;;;;8.25;5.13;;;16.50;72.80;;;;;;5083747;28;20099;-76
2022/05/09 02:55:22;;;;;;;6.28;4.20;;;16.50;72.10;;;;;;5085773;28;20021;-77
2022/05/09 02:57:50;;;;;;;6.95;3.42;;;16.50;72.00;;;;;;5081771;28;20032;-76
2022/05/09 03:00:27;;;;;;;9.65;3.92;;;16.40;72.00;;;;;;5077038;28;20028;-77
2022/05/09 03:05:40;;;;;;;5.03;3.90;;;16.40;71.90;;;;;;5088637;28;20382;-76
2022/05/09 03:08:09;;;;;;;5.22;3.60;;;16.30;71.80;;;;;;5081904;28;20028;-76
2022/05/09 03:10:36;;;;;;;4.40;3.47;;;16.40;71.80;;;;;;5082622;28;20490;-76
2022/05/09 03:13:05;;;;;;;6.55;3.85;;;16.30;71.80;;;;;;5082999;28;20016;-73
2022/05/09 03:15:36;;;;;;;7.13;3.78;;;16.30;71.70;;;;;;5086732;28;20032;-73
2022/05/09 03:18:10;;;;;;;10.85;4.88;;;16.30;71.70;;;;;;5079468;28;20024;-74
2022/05/09 03:20:36;;;;;;;8.13;3.35;;;16.30;71.70;;;;;;5082202;28;20523;-77
2022/05/09 03:23:12;;;;;;;6.65;3.53;;;16.30;71.70;;;;;;5084704;28;20027;-77
2022/05/09 03:25:42;;;;;;;9.10;3.33;;;16.20;71.60;;;;;;5082698;28;20024;-77
2022/05/09 03:28:15;;;;;;;12.48;3.40;;;16.20;71.50;;;;;;5081769;28;20028;-77
2022/05/09 03:30:46;;;;;;;5.30;3.00;;;16.20;71.40;;;;;;5082033;28;20066;-76
2022/05/09 03:33:12;;;;;;;6.35;3.10;;;16.20;71.30;;;;;;5081780;28;20081;-76
2022/05/09 03:35:39;;;;;;;6.18;3.38;;;16.10;71.20;;;;;;5083713;28;20029;-76
2022/05/09 03:38:05;;;;;;;9.77;4.28;;;16.10;71.80;;;;;;5085804;28;20057;-75
2022/05/09 03:40:32;;;;;;;5.72;3.05;;;16.10;71.20;;;;;;5081850;28;20072;-76
2022/05/09 03:42:59;;;;;;;13.80;3.85;;;16.10;71.20;;;;;;5083570;28;20700;-76
2022/05/09 03:45:26;;;;;;;6.63;3.38;;;16.10;71.30;;;;;;5084456;28;20043;-77
2022/05/09 03:47:54;;;;;;;8.05;3.92;;;16.10;71.20;;;;;;5078276;28;20039;-76
2022/05/09 03:50:22;;;;;;;6.88;3.10;;;16.10;71.30;;;;;;5082270;28;20012;-76
2022/05/09 03:52:49;;;;;;;7.30;3.10;;;16.10;71.40;;;;;;5087512;28;20128;-76
2022/05/09 03:55:16;;;;;;;6.05;2.90;;;16.00;71.50;;;;;;5083788;28;20016;-76
2022/05/09 03:57:51;;;;;;;10.63;3.88;;;16.00;71.50;;;;;;5083043;28;20468;-76
2022/05/09 04:00:18;;;;;;;;;;;16.00;71.40;;;;;;5086014;28;20109;-74
2022/05/09 04:02:46;;;;;;;10.07;3.22;;;16.00;71.30;;;;;;5084090;28;20488;-80
2022/05/09 04:05:17;;;;;;;6.30;3.25;;;16.00;71.20;;;;;;5081299;28;20818;-77
2022/05/09 04:07:52;;;;;;;9.52;4.28;;;16.00;70.50;;;;;;5087638;28;20028;-75
2022/05/09 04:10:26;;;;;;;36.25;21.55;;;15.90;70.90;;;;;;5085616;28;20102;-75
2022/05/09 04:12:52;;;;;;;41.08;27.92;;;15.80;71.80;;;;;;5086328;28;20027;-77
2022/05/09 04:18:05;;;;;;;15.30;8.80;;;15.80;72.50;;;;;;5083376;28;20383;-74
2022/05/09 04:20:32;;;;;;;6.53;4.82;;;15.80;72.40;;;;;;5081958;28;20069;-75
2022/05/09 04:23:26;;;;;;;5.00;3.28;;;15.80;72.30;;;;;;5085746;28;20084;-76
2022/05/09 04:25:53;;;;;;;7.78;4.18;;;15.80;72.20;;;;;;5061910;28;20424;-74
2022/05/09 04:28:59;;;;;;;10.32;2.65;;;15.80;72.10;;;;;;5080462;28;20027;-76
2022/05/09 04:32:05;;;;;;;6.97;3.08;;;15.80;72.00;;;;;;5080122;28;20069;-77
2022/05/09 04:34:31;;;;;;;7.35;2.75;;;15.80;72.00;;;;;;5083030;28;20023;-76
2022/05/09 04:36:58;;;;;;;12.65;3.08;;;15.80;71.60;;;;;;5085035;28;20081;-75
2022/05/09 04:39:25;;;;;;;9.05;4.60;;;15.80;72.50;;;;;;5075058;28;20020;-74
2022/05/09 04:41:51;;;;;;;11.13;4.93;;;15.70;72.00;;;;;;5081798;28;20052;-75
2022/05/09 04:44:17;;;;;;;9.98;4.22;;;15.80;71.90;;;;;;5075917;28;20012;-74
2022/05/09 04:46:45;;;;;;;7.00;3.70;;;15.70;71.70;;;;;;5076863;28;20028;-75
2022/05/09 04:49:11;;;;;;;15.10;3.65;;;15.70;71.70;;;;;;5076978;28;20081;-74
2022/05/09 04:51:38;;;;;;;5.90;2.75;;;15.70;71.70;;;;;;5079558;28;20027;-72
2022/05/09 04:54:04;;;;;;;5.40;2.85;;;15.70;72.20;;;;;;5072607;28;20020;-72
2022/05/09 04:57:10;;;;;;;5.28;2.80;;;15.70;72.40;;;;;;5071512;28;20513;-70
2022/05/09 05:00:16;;;;;;;6.75;2.88;;;15.70;72.30;;;;;;5076551;28;20043;-70
2022/05/09 05:03:23;;;;;;;16.50;3.58;;;15.70;72.10;;;;;;5071627;28;20935;-70
2022/05/09 05:06:29;;;;;;;5.57;3.92;;;15.70;72.00;;;;;;5075911;28;20024;-70
2022/05/09 05:09:35;;;;;;;6.43;2.83;;;15.70;72.00;;;;;;5075866;28;20031;-70
2022/05/09 05:12:41;;;;;;;4.18;3.33;;;15.70;71.90;;;;;;5083569;28;20379;-69
2022/05/09 05:15:48;;;;;;;7.32;4.05;;;15.70;72.00;;;;;;5080392;28;20017;-69
2022/05/09 05:18:40;;;;;;;;;;;15.70;71.90;;;;;;5083429;28;20405;-70
2022/05/09 05:21:49;;;;;;;8.93;6.18;;;15.60;71.80;;;;;;5079559;28;19923;-69
2022/05/09 05:24:55;;;;;;;15.02;5.80;;;15.70;71.90;;;;;;5076526;28;20468;-71
2022/05/09 05:27:41;;;;;;;;;;;15.70;71.90;;;;;;5083071;28;20021;-70
2022/05/09 05:30:49;;;;;;;10.60;5.90;;;15.70;71.90;;;;;;5083899;28;19995;-70
2022/05/09 05:33:55;;;;;;;8.27;5.65;;;15.60;71.70;;;;;;5077679;28;20422;-71
2022/05/09 05:37:01;;;;;;;26.73;5.20;;;15.60;71.70;;;;;;5076202;28;20024;-70
2022/05/09 05:40:07;;;;;;;12.02;4.85;;;15.60;72.00;;;;;;5082928;28;20046;-70
2022/05/09 05:43:14;;;;;;;8.00;4.93;;;15.60;72.30;;;;;;5086616;28;20113;-70
2022/05/09 05:46:20;;;;;;;6.93;4.50;;;15.60;72.30;;;;;;5086668;28;20023;-70
2022/05/09 05:49:26;;;;;;;12.63;5.18;;;15.60;72.40;;;;;;5085415;28;20379;-74
2022/05/09 05:52:32;;;;;;;13.85;5.28;;;15.60;72.40;;;;;;5083835;28;20024;-71
2022/05/09 05:55:38;;;;;;;11.10;5.57;;;15.60;72.30;;;;;;5081531;28;20035;-72
2022/05/09 05:58:44;;;;;;;10.63;5.30;;;15.60;72.40;;;;;;5083767;28;20016;-73
2022/05/09 06:01:51;;;;;;;13.95;6.25;;;15.60;72.50;;;;;;5083923;28;20038;-74
2022/05/09 06:04:57;;;;;;;13.13;5.72;;;15.60;72.60;;;;;;5085345;28;20025;-73
2022/05/09 06:08:03;;;;;;;15.00;5.72;;;15.60;72.80;;;;;;5085292;28;20022;-73
2022/05/09 06:11:10;;;;;;;11.48;6.35;;;15.60;72.80;;;;;;5080257;28;20433;-72
2022/05/09 06:13:56;;;;;;;;;;;15.60;73.00;;;;;;5079930;28;20479;-73
2022/05/09 06:17:03;;;;;;;14.57;6.87;;;15.60;73.00;;;;;;5084989;28;19908;-73
2022/05/09 06:20:09;;;;;;;11.43;6.35;;;15.60;73.40;;;;;;5081353;28;20036;-73
2022/05/09 06:23:17;;;;;;;16.35;6.60;;;15.60;73.60;;;;;;5082036;28;20043;-71
2022/05/09 06:26:23;;;;;;;15.48;6.20;;;15.60;74.00;;;;;;5082107;28;20039;-73
2022/05/09 06:29:29;;;;;;;13.48;5.40;;;15.60;74.40;;;;;;5083289;28;20020;-70
2022/05/09 06:32:37;;;;;;;17.00;5.70;;;15.60;75.50;;;;;;5076734;28;20054;-73
2022/05/09 06:35:43;;;;;;;8.80;4.70;;;15.60;75.30;;;;;;5080806;28;20031;-70
2022/05/09 06:38:50;;;;;;;9.63;4.32;;;15.70;76.00;;;;;;5082706;28;20031;-72
2022/05/09 06:41:56;;;;;;;8.02;3.60;;;15.70;76.60;;;;;;5084283;28;20089;-71
2022/05/09 06:45:02;;;;;;;11.38;4.22;;;15.80;77.90;;;;;;5084470;28;20058;-70
2022/05/09 06:48:08;;;;;;;9.43;4.18;;;15.80;78.80;;;;;;5080539;28;20471;-73
2022/05/09 06:50:54;;;;;;;;;;;15.90;78.70;;;;;;5081974;28;20017;-72
2022/05/09 06:54:01;;;;;;;8.52;5.15;;;15.90;78.80;;;;;;5084688;28;19904;-73
2022/05/09 06:57:07;;;;;;;15.00;3.97;;;15.90;78.80;;;;;;5082818;28;20024;-72
2022/05/09 07:00:13;;;;;;;10.00;3.67;;;15.90;79.00;;;;;;5078718;28;20051;-71
2022/05/09 07:03:19;;;;;;;11.27;3.45;;;16.00;79.40;;;;;;5080911;28;20032;-74
2022/05/09 07:06:25;;;;;;;9.52;3.90;;;16.00;79.70;;;;;;5084232;28;20035;-73
2022/05/09 07:09:31;;;;;;;35.38;4.70;;;16.00;79.80;;;;;;5079249;28;20021;-73
2022/05/09 07:12:37;;;;;;;18.27;3.65;;;16.10;80.10;;;;;;5077484;28;20215;-73
2022/05/09 07:15:44;;;;;;;23.52;3.78;;;16.10;80.30;;;;;;5085392;28;20012;-73
2022/05/09 07:18:50;;;;;;;20.38;4.15;;;16.10;80.70;;;;;;5082611;28;20024;-70
2022/05/09 07:21:56;;;;;;;17.65;5.13;;;16.20;81.20;;;;;;5078449;28;20138;-74
2022/05/09 07:25:02;;;;;;;18.45;3.78;;;16.20;81.40;;;;;;5076556;28;20027;-71
2022/05/09 07:27:48;;;;;;;;;;;16.20;81.40;;;;;;5082912;28;20028;-72
2022/05/09 07:30:57;;;;;;;6.97;2.37;;;16.30;81.60;;;;;;5078234;28;19939;-70
2022/05/09 07:34:04;;;;;;;11.45;3.95;;;16.30;81.50;;;;;;5081652;28;20020;-72
2022/05/09 07:37:10;;;;;;;19.73;2.90;;;16.40;81.60;;;;;;5082018;28;20023;-73
2022/05/09 07:40:16;;;;;;;7.95;2.53;;;16.40;81.50;;;;;;5082475;28;20016;-71
2022/05/09 07:43:23;;;;;;;6.10;3.08;;;16.40;81.40;;;;;;5076950;28;20028;-72
2022/05/09 07:46:29;;;;;;;7.68;2.38;;;16.40;81.50;;;;;;5074077;28;20088;-70
2022/05/09 07:49:36;;;;;;;4.85;2.10;;;16.50;81.70;;;;;;5082146;28;20028;-71
2022/05/09 07:52:42;;;;;;;6.15;2.78;;;16.60;81.80;;;;;;5078748;28;20484;-69
2022/05/09 07:55:28;;;;;;;;;;;16.60;81.80;;;;;;5083653;28;20020;-72
2022/05/09 07:58:35;;;;;;;8.15;2.60;;;16.60;81.70;;;;;;5081279;28;19957;-71
2022/05/09 08:01:21;;;;;;;;;;;16.60;81.60;;;;;;5081901;28;20046;-72
2022/05/09 08:04:27;;;;;;;6.30;2.07;;;16.70;81.50;;;;;;5079806;28;20656;-74
2022/05/09 08:07:33;;;;;;;9.52;2.17;;;16.80;81.70;;;;;;5081836;28;20283;-72
2022/05/09 08:10:39;;;;;;;8.82;1.38;;;16.80;81.20;;;;;;5077188;28;20028;-72
2022/05/09 08:13:45;;;;;;;6.03;1.27;;;16.80;81.10;;;;;;5083282;28;20463;-69
2022/05/09 08:16:51;;;;;;;8.55;2.05;;;16.90;80.90;;;;;;5076748;28;20106;-73
2022/05/09 08:19:57;;;;;;;5.25;1.60;;;16.90;80.70;;;;;;5081881;28;20505;-70
2022/05/09 08:23:04;;;;;;;5.30;1.55;;;17.00;80.40;;;;;;5079271;28;20044;-72
2022/05/09 08:26:11;;;;;;;4.70;1.80;;;17.00;80.10;;;;;;5080444;28;20032;-72
2022/05/09 08:29:17;;;;;;;3.20;1.75;;;17.10;79.70;;;;;;5081141;28;20020;-72
2022/05/09 08:32:24;;;;;;;4.50;2.92;;;17.10;79.30;;;;;;5082702;28;20024;-71
2022/05/09 08:35:30;;;;;;;4.35;1.60;;;17.10;78.80;;;;;;5081170;28;20051;-72
2022/05/09 08:38:36;;;;;;;4.47;2.63;;;17.20;78.40;;;;;;5080198;28;20020;-73
2022/05/09 08:41:08;;;;;;;6.28;2.17;;;17.20;78.10;;;;;;5080940;28;20482;-71
2022/05/09 08:44:08;;;;;;;6.35;1.60;;;17.30;77.90;;;;;;5081413;28;20024;-72
2022/05/09 08:46:58;;;;;;;6.85;1.92;;;17.30;77.70;;;;;;5077115;28;20074;-72
2022/05/09 08:50:15;;;;;;;4.05;1.77;;;17.40;77.50;;;;;;5082830;28;20020;-72
2022/05/09 08:53:30;;;;;;;3.90;1.83;;;17.40;77.20;;;;;;5080100;28;20033;-72
2022/05/09 08:56:36;;;;;;;2.28;1.50;;;17.40;76.70;;;;;;5079527;28;20036;-72
2022/05/09 08:59:42;;;;;;;6.00;2.22;;;17.50;76.50;;;;;;5077667;28;20032;-70
2022/05/09 09:02:54;;;;;;;5.85;1.90;;;17.60;77.00;;;;;;5078365;28;20610;-71
2022/05/09 09:06:00;;;;;;;5.00;1.70;;;17.60;76.90;;;;;;5077675;28;20425;-70
2022/05/09 09:09:16;;;;;;;3.78;0.90;;;17.70;76.30;;;;;;5077185;28;20078;-72
2022/05/09 09:11:57;;;;;;;6.68;1.05;;;17.70;75.70;;;;;;5082663;28;20040;-69
2022/05/09 09:14:44;;;;;;;2.22;0.80;;;17.80;75.10;;;;;;5082449;28;20365;-72
2022/05/09 09:17:56;;;;;;;1.80;0.60;;;17.80;74.60;;;;;;5081718;28;20371;-73
2022/05/09 09:21:11;;;;;;;3.40;0.50;;;17.90;74.30;;;;;;5082170;28;20127;-71
2022/05/09 09:24:06;;;;;;;0.63;0.63;;;18.00;74.10;;;;;;5083307;28;20094;-72
2022/05/09 09:26:56;;;;;;;1.60;0.60;;;18.00;73.60;;;;;;5083312;28;20496;-72
2022/05/09 09:30:02;;;;;;;2.35;0.32;;;18.00;72.40;;;;;;5073241;28;20024;-73
2022/05/09 09:32:51;;;;;;;1.23;0.50;;;18.00;71.80;;;;;;5085964;28;20060;-71
2022/05/09 09:36:10;;;;;;;4.90;0.50;;;18.10;71.70;;;;;;5078506;28;20008;-71
2022/05/09 09:39:19;;;;;;;1.27;0.50;;;18.10;71.60;;;;;;5082716;28;20427;-71
2022/05/09 09:42:25;;;;;;;2.10;0.30;;;18.10;71.80;;;;;;5080396;28;20038;-71
2022/05/09 09:45:40;;;;;;;1.17;0.28;;;18.20;71.80;;;;;;5084754;28;20024;-70
2022/05/09 09:48:26;;;;;;;1.02;0.60;;;18.20;71.40;;;;;;5079199;28;20036;-71
2022/05/09 09:51:12;;;;;;;3.92;0.50;;;18.30;71.30;;;;;;5082134;28;20024;-71
2022/05/09 09:53:51;;;;;;;1.58;0.30;;;18.30;71.30;;;;;;5081801;28;20032;-73
2022/05/09 09:56:24;;;;;;;0.73;0.40;;;18.40;71.10;;;;;;5084084;28;20129;-72
2022/05/09 09:59:13;;;;;;;2.35;0.40;;;18.40;70.90;;;;;;5081508;28;20120;-71
2022/05/09 10:02:20;;;;;;;1.23;0.32;;;18.40;70.90;;;;;;5081514;28;20135;-72
2022/05/09 10:05:28;;;;;;;5.90;1.05;;;18.50;71.10;;;;;;5085281;28;20020;-71
2022/05/09 10:08:37;;;;;;;2.78;0.30;;;18.60;71.00;;;;;;5078617;28;20020;-72
2022/05/09 10:11:04;;;;;;;1.23;0.50;;;18.60;70.80;;;;;;5075508;28;20052;-72
2022/05/09 10:13:56;;;;;;;4.57;0.60;;;18.70;70.70;;;;;;5080822;28;20024;-72
2022/05/09 10:17:08;;;;;;;1.83;0.57;;;18.70;70.40;;;;;;5085875;28;20553;-73
2022/05/09 10:20:14;;;;;;;3.58;0.55;;;18.70;69.80;;;;;;5083752;28;20071;-72
2022/05/09 10:26:45;;;;;;;2.92;0.45;;;18.80;69.30;;;;;;5077888;28;20038;-71
2022/05/09 10:29:53;;;;;;;1.60;1.00;;;18.80;69.40;;;;;;5082657;28;20054;-71
2022/05/09 10:32:39;;;;;;;4.30;0.65;;;18.90;69.60;;;;;;5074753;28;20036;-73
2022/05/09 10:35:54;;;;;;;0.82;0.43;;;18.90;69.30;;;;;;5075957;28;20020;-73
2022/05/09 10:39:00;;;;;;;3.38;0.52;;;19.00;68.90;;;;;;5081887;28;20102;-72
2022/05/09 10:42:12;;;;;;;2.60;0.43;;;19.00;68.70;;;;;;5080904;28;20059;-72
2022/05/09 10:45:24;;;;;;;3.20;0.55;;;19.10;68.70;;;;;;5076977;28;20032;-70
2022/05/09 10:48:14;;;;;;;1.88;0.40;;;19.10;68.50;;;;;;5080850;28;20499;-73
2022/05/09 10:50:49;;;;;;;3.03;0.50;;;19.20;68.10;;;;;;5085655;28;20441;-73
2022/05/09 10:54:00;;;;;;;1.50;0.40;;;19.20;68.00;;;;;;5081928;28;20030;-72
2022/05/09 10:56:50;;;;;;;0.88;0.35;;;19.30;67.80;;;;;;5081003;28;20039;-73
2022/05/09 10:59:56;;;;;;;1.63;0.40;;;19.30;67.40;;;;;;5080081;28;20024;-73
2022/05/09 11:03:02;;;;;;;1.65;0.55;;;19.40;67.30;;;;;;5081694;28;20032;-73
2022/05/09 11:06:17;;;;;;;3.13;0.65;;;19.40;67.00;;;;;;5076994;28;20119;-72
2022/05/09 11:09:18;;;;;;;1.48;0.63;;;19.40;66.90;;;;;;5062840;28;20564;-72
2022/05/09 11:12:06;;;;;;;3.08;0.70;;;19.50;66.90;;;;;;5085137;28;20028;-72
2022/05/09 11:15:18;;;;;;;3.22;0.88;;;19.50;66.60;;;;;;5080776;28;20016;-73
2022/05/09 11:18:14;;;;;;;1.55;0.50;;;19.60;66.60;;;;;;5073336;28;20155;-71
2022/05/09 11:21:06;;;;;;;3.88;0.47;;;19.60;66.40;;;;;;5077358;28;20097;-72
2022/05/09 11:23:48;;;;;;;1.73;0.32;;;19.70;66.70;;;;;;5077636;28;20059;-72
2022/05/09 11:26:41;;;;;;;3.25;0.40;;;19.70;67.10;;;;;;5077893;28;20016;-72
2022/05/09 11:29:30;;;;;;;2.10;0.43;;;19.80;67.00;;;;;;5076637;28;20020;-72
2022/05/09 11:32:12;;;;;;;7.25;1.17;;;19.90;67.00;;;;;;5076656;28;20021;-71
2022/05/09 11:35:22;;;;;;;3.42;0.98;;;19.90;67.10;;;;;;5078499;28;20040;-73
2022/05/09 11:38:18;;;;;;;0.40;0.40;;;19.90;67.20;;;;;;5076401;28;20376;-73
2022/05/09 11:41:20;;;;;;;7.35;0.47;;;20.00;67.30;;;;;;5071076;28;20112;-73
2022/05/09 11:44:38;;;;;;;4.65;0.57;;;20.00;67.20;;;;;;5071549;28;20074;-70
2022/05/09 11:47:47;;;;;;;13.10;0.80;;;20.10;67.30;;;;;;5072651;28;20081;-73
2022/05/09 11:50:59;;;;;;;1.58;0.50;;;20.10;67.50;;;;;;5074574;28;20024;-73
2022/05/09 11:54:05;;;;;;;3.60;0.47;;;20.10;67.10;;;;;;5074464;28;20262;-73
2022/05/09 11:57:11;;;;;;;1.42;0.30;;;20.10;67.00;;;;;;5069888;28;20495;-73
2022/05/09 12:00:20;;;;;;;4.13;0.70;;;20.10;67.00;;;;;;5071623;28;20025;-73
2022/05/09 12:03:07;;;;;;;3.97;0.40;;;20.20;67.10;;;;;;5071899;28;20509;-70
2022/05/09 12:06:14;;;;;;;3.75;0.68;;;20.20;66.90;;;;;;5070453;28;20024;-70
2022/05/09 12:09:26;;;;;;;4.07;0.43;;;20.20;66.80;;;;;;5073735;28;20501;-72
2022/05/09 12:12:33;;;;;;;1.48;0.75;;;20.20;66.60;;;;;;5072031;28;20029;-73
2022/05/09 12:15:19;;;;;;;3.55;0.47;;;20.30;66.70;;;;;;5069756;28;20016;-69
2022/05/09 12:18:29;;;;;;;0.20;0.20;;;20.30;66.40;;;;;;5073047;28;20042;-72
2022/05/09 12:21:41;;;;;;;5.95;0.68;;;20.30;66.40;;;;;;5039789;28;20040;-70
2022/05/09 12:24:17;;;;;;;2.38;0.28;;;20.30;66.30;;;;;;5072785;28;20031;-73
2022/05/09 12:27:23;;;;;;;0.28;0.10;;;20.40;66.20;;;;;;5071582;28;20024;-72
2022/05/09 12:29:50;;;;;;;1.48;0.60;;;20.40;66.20;;;;;;5074041;28;20020;-72
2022/05/09 12:32:17;;;;;;;3.00;0.45;;;20.40;66.10;;;;;;5069723;28;20059;-73
2022/05/09 12:34:46;;;;;;;3.42;0.63;;;20.40;66.10;;;;;;5072200;28;20031;-73
2022/05/09 12:37:19;;;;;;;4.72;0.50;;;20.50;66.30;;;;;;5071531;28;20025;-73
2022/05/09 12:39:49;;;;;;;0.93;0.28;;;20.40;66.10;;;;;;5072602;28;20027;-73
2022/05/09 12:42:43;;;;;;;2.28;0.22;;;20.50;66.30;;;;;;5075023;28;20471;-73
2022/05/09 12:45:11;;;;;;;1.00;0.25;;;20.40;66.10;;;;;;5074749;28;20024;-72
2022/05/09 12:47:40;;;;;;;0.95;0.45;;;20.40;66.10;;;;;;5074882;28;20036;-73
2022/05/09 12:50:26;;;;;;;2.60;0.45;;;20.50;66.20;;;;;;5073563;28;20492;-72
2022/05/09 12:53:03;;;;;;;0.50;0.43;;;20.50;66.20;;;;;;5078337;28;20479;-73
2022/05/09 12:58:43;;;;;;;0.57;0.20;;;20.50;66.20;;;;;;5077180;28;20067;-73
2022/05/09 13:01:20;;;;;;;3.03;0.63;;;20.60;66.20;;;;;;5083147;28;20082;-72
2022/05/09 13:03:59;;;;;;;0.88;0.40;;;20.60;65.80;;;;;;5074538;28;20048;-73
2022/05/09 13:06:38;;;;;;;10.25;0.50;;;20.60;65.80;;;;;;5073982;28;20181;-74
2022/05/09 13:09:23;;;;;;;2.92;0.70;;;20.60;65.70;;;;;;5079668;28;20027;-72
2022/05/09 13:12:03;;;;;;;3.20;0.50;;;20.60;65.80;;;;;;5073351;28;20024;-74
2022/05/09 13:14:39;;;;;;;2.78;0.85;;;20.60;65.90;;;;;;5073893;28;20033;-74
2022/05/09 13:17:15;;;;;;;3.60;0.47;;;20.60;65.80;;;;;;5076701;28;20020;-74
2022/05/09 13:19:50;;;;;;;5.15;0.63;;;20.60;65.80;;;;;;5080936;28;20747;-74
2022/05/09 13:22:49;;;;;;;0.40;0.30;;;20.60;66.50;;;;;;5078937;28;20495;-73
2022/05/09 13:25:21;;;;;;;2.15;0.55;;;20.60;65.70;;;;;;5076761;28;20480;-71
2022/05/09 13:27:52;;;;;;;7.10;0.40;;;20.60;66.00;;;;;;5077611;28;20030;-73
2022/05/09 13:30:18;;;;;;;3.90;0.40;;;20.60;65.90;;;;;;5077460;28;20050;-73
2022/05/09 13:32:56;;;;;;;1.58;0.38;;;20.60;65.70;;;;;;5080268;28;20105;-74
2022/05/09 13:35:29;;;;;;;1.10;0.60;;;20.50;65.70;;;;;;5078011;28;20543;-72
2022/05/09 13:37:56;;;;;;;0.57;0.45;;;20.60;65.80;;;;;;5079029;28;20024;-74
2022/05/09 13:40:25;;;;;;;4.15;0.50;;;20.50;65.70;;;;;;5077178;28;20063;-73
2022/05/09 13:42:53;;;;;;;1.60;0.38;;;20.50;65.90;;;;;;5073652;28;20107;-73
2022/05/09 13:45:26;;;;;;;4.40;0.65;;;20.50;65.90;;;;;;5079699;28;20482;-74
2022/05/09 13:47:58;;;;;;;3.03;0.30;;;20.50;65.80;;;;;;5077921;28;20017;-72
2022/05/09 13:50:32;;;;;;;2.08;0.45;;;20.50;65.70;;;;;;5078117;28;20051;-73
2022/05/09 13:53:06;;;;;;;1.83;0.50;;;20.50;65.70;;;;;;5082485;28;20013;-73
2022/05/09 13:55:38;;;;;;;0.80;0.40;;;20.50;65.90;;;;;;5078336;28;20053;-73
2022/05/09 13:58:05;;;;;;;1.83;0.73;;;20.50;65.90;;;;;;5079228;28;20021;-74
2022/05/09 14:00:44;;;;;;;1.45;0.55;;;20.50;65.90;;;;;;5077945;28;20509;-72
2022/05/09 14:03:20;;;;;;;3.20;1.17;;;20.40;65.90;;;;;;5081086;28;20032;-73
2022/05/09 14:05:52;;;;;;;2.10;0.50;;;20.40;66.10;;;;;;5073668;28;20111;-69
2022/05/09 14:08:20;;;;;;;1.77;0.38;;;20.40;66.40;;;;;;5078879;28;20021;-74
2022/05/09 14:11:00;;;;;;;2.83;1.05;;;20.40;66.60;;;;;;5078381;28;20062;-73
2022/05/09 14:13:46;;;;;;;1.17;0.50;;;20.40;66.60;;;;;;5076735;28;20032;-72
2022/05/09 14:16:16;;;;;;;2.67;0.75;;;20.40;66.70;;;;;;5075499;28;20062;-73
2022/05/09 14:18:44;;;;;;;3.17;0.50;;;20.30;66.50;;;;;;5078966;28;20396;-71
2022/05/09 14:21:17;;;;;;;5.32;1.33;;;20.30;66.50;;;;;;5080481;28;20392;-71
2022/05/09 14:23:47;;;;;;;7.65;0.80;;;20.30;66.70;;;;;;5083613;28;20024;-74
2022/05/09 14:32:03;;;;;;;3.00;1.73;;;20.20;67.50;;;;;;5081195;28;20040;-76
2022/05/09 14:34:38;;;;;;;21.10;16.60;;;20.20;67.30;;;;;;5074056;28;20024;-76
2022/05/09 14:37:27;;;;;;;14.57;9.48;;;20.10;67.30;;;;;;5084039;28;20031;-73
2022/05/09 14:40:05;;;;;;;9.55;6.75;;;20.10;67.50;;;;;;5083797;28;20028;-78
2022/05/09 14:42:47;;;;;;;15.52;3.63;;;20.10;67.70;;;;;;5080331;28;21249;-72
2022/05/09 14:45:23;;;;;;;20.13;2.63;;;20.00;67.90;;;;;;5075638;28;20036;-77
2022/05/09 14:48:09;;;;;;;12.88;1.38;;;20.00;68.30;;;;;;5083295;28;20134;-76
2022/05/09 14:50:39;;;;;;;6.28;1.33;;;20.00;68.40;;;;;;5080273;28;20393;-75
2022/05/09 14:53:24;;;;;;;3.97;0.90;;;20.00;68.70;;;;;;5083650;28;20016;-71
2022/05/09 14:59:20;;;;;;;1.23;0.80;;;19.90;69.00;;;;;;5084776;28;20050;-76
2022/05/09 15:02:01;;;;;;;4.22;0.77;;;19.90;68.90;;;;;;5084489;28;20035;-74